createdAt,value
2022-08-03T00:00:26.525Z,99.90
2022-08-03T00:02:53.877Z,99.90
2022-08-03T00:05:21.260Z,99.90
2022-08-03T00:07:49.506Z,99.90
2022-08-03T00:10:16.970Z,99.90
2022-08-03T00:12:43.913Z,99.90
2022-08-03T00:15:16.592Z,99.90
2022-08-03T00:17:52.108Z,99.90
2022-08-03T00:20:20.141Z,99.90
2022-08-03T00:22:46.991Z,99.90
2022-08-03T00:25:13.972Z,99.90
2022-08-03T00:27:40.788Z,99.90
2022-08-03T00:30:08.880Z,99.90
2022-08-03T00:32:35.776Z,99.90
2022-08-03T00:35:08.421Z,99.90
2022-08-03T00:37:41.229Z,99.90
2022-08-03T00:40:14.079Z,99.90
2022-08-03T00:42:55.633Z,99.90
2022-08-03T00:45:27.692Z,99.90
2022-08-03T00:47:55.451Z,99.90
2022-08-03T00:50:24.416Z,99.90
2022-08-03T00:52:57.197Z,99.90
2022-08-03T00:55:24.549Z,99.90
2022-08-03T00:57:52.379Z,99.90
2022-08-03T01:00:22.682Z,99.90
2022-08-03T01:02:50.085Z,99.90
2022-08-03T01:05:17.812Z,99.90
2022-08-03T01:08:12.684Z,99.90
2022-08-03T01:11:06.672Z,99.90
2022-08-03T01:13:59.935Z,99.90
2022-08-03T01:16:55.747Z,99.90
2022-08-03T01:19:32.950Z,99.90
2022-08-03T01:22:29.967Z,99.90
2022-08-03T01:25:29.673Z,99.90
2022-08-03T01:28:50.336Z,99.90
2022-08-03T01:31:23.939Z,99.90
2022-08-03T01:33:57.308Z,99.90
2022-08-03T01:36:32.176Z,99.90
2022-08-03T01:39:04.875Z,99.90
2022-08-03T01:41:35.497Z,99.90
2022-08-03T01:44:30.231Z,99.90
2022-08-03T01:46:54.324Z,99.90
2022-08-03T01:49:21.367Z,99.90
2022-08-03T01:52:02.699Z,99.90
2022-08-03T01:54:36.636Z,99.90
2022-08-03T01:57:04.758Z,99.90
2022-08-03T01:59:34.833Z,99.90
2022-08-03T02:02:16.013Z,99.90
2022-08-03T02:04:53.707Z,99.90
2022-08-03T02:07:20.935Z,99.90
2022-08-03T02:09:54.223Z,99.90
2022-08-03T02:12:24.982Z,99.90
2022-08-03T02:14:52.785Z,99.90
2022-08-03T02:17:38.474Z,99.90
2022-08-03T02:20:09.637Z,99.90
2022-08-03T02:22:40.718Z,99.90
2022-08-03T02:25:09.976Z,99.90
2022-08-03T02:27:43.614Z,99.90
2022-08-03T02:30:12.382Z,99.90
2022-08-03T02:32:41.031Z,99.90
2022-08-03T02:35:13.220Z,99.90
2022-08-03T02:37:49.491Z,99.90
2022-08-03T02:40:19.276Z,99.90
2022-08-03T02:42:48.570Z,99.90
2022-08-03T02:45:16.802Z,99.90
2022-08-03T02:47:53.787Z,99.90
2022-08-03T02:50:23.456Z,99.90
2022-08-03T02:52:52.066Z,99.90
2022-08-03T02:55:21.401Z,99.90
2022-08-03T02:57:48.849Z,99.90
2022-08-03T03:00:27.337Z,99.90
2022-08-03T03:02:58.034Z,99.90
2022-08-03T03:05:53.534Z,99.90
2022-08-03T03:08:18.049Z,99.90
2022-08-03T03:10:47.971Z,99.90
2022-08-03T03:13:16.237Z,99.90
2022-08-03T03:15:45.186Z,99.90
2022-08-03T03:18:16.763Z,99.90
2022-08-03T03:20:46.510Z,99.90
2022-08-03T03:23:14.692Z,99.90
2022-08-03T03:25:42.246Z,99.90
2022-08-03T03:28:11.508Z,99.90
2022-08-03T03:30:38.592Z,99.90
2022-08-03T03:33:05.769Z,99.90
2022-08-03T03:35:38.913Z,99.90
2022-08-03T03:38:06.720Z,99.90
2022-08-03T03:40:36.150Z,99.90
2022-08-03T03:43:07.267Z,99.90
2022-08-03T03:45:35.125Z,99.90
2022-08-03T03:48:04.196Z,99.90
2022-08-03T03:50:36.943Z,99.90
2022-08-03T03:53:04.603Z,99.90
2022-08-03T03:55:31.738Z,99.90
2022-08-03T03:57:58.645Z,99.90
2022-08-03T04:00:25.560Z,99.90
2022-08-03T04:02:52.531Z,99.90
2022-08-03T04:05:37.792Z,99.90
2022-08-03T04:08:29.035Z,99.90
2022-08-03T04:10:58.851Z,99.90
2022-08-03T04:13:31.934Z,99.90
2022-08-03T04:15:59.789Z,99.90
2022-08-03T04:18:29.756Z,99.90
2022-08-03T04:21:03.499Z,99.90
2022-08-03T04:23:33.777Z,99.90
2022-08-03T04:26:03.383Z,99.90
2022-08-03T04:28:32.547Z,99.90
2022-08-03T04:31:01.320Z,99.90
2022-08-03T04:33:31.340Z,99.90
2022-08-03T04:36:03.801Z,99.90
2022-08-03T04:38:38.736Z,99.90
2022-08-03T04:41:07.398Z,99.90
2022-08-03T04:43:35.082Z,99.90
2022-08-03T04:46:03.733Z,99.90
2022-08-03T04:48:30.705Z,99.90
2022-08-03T04:50:57.852Z,99.90
2022-08-03T04:53:24.688Z,99.90
2022-08-03T04:55:51.671Z,99.90
2022-08-03T04:58:18.513Z,99.90
2022-08-03T05:00:45.650Z,99.90
2022-08-03T05:03:23.534Z,99.90
2022-08-03T05:06:09.517Z,99.90
2022-08-03T05:08:46.514Z,99.90
2022-08-03T05:11:17.113Z,99.90
2022-08-03T05:13:45.309Z,99.90
2022-08-03T05:16:13.898Z,99.90
2022-08-03T05:18:42.067Z,99.90
2022-08-03T05:21:10.621Z,99.90
2022-08-03T05:23:37.919Z,99.90
2022-08-03T05:26:05.047Z,99.90
2022-08-03T05:28:31.864Z,99.90
2022-08-03T05:30:58.706Z,99.90
2022-08-03T05:33:25.638Z,99.90
2022-08-03T05:36:00.631Z,99.90
2022-08-03T05:38:34.960Z,99.90
2022-08-03T05:41:23.228Z,99.90
2022-08-03T05:43:55.037Z,99.90
2022-08-03T05:46:22.911Z,99.90
2022-08-03T05:48:49.911Z,99.90
2022-08-03T05:51:17.058Z,99.90
2022-08-03T05:53:44.460Z,99.90
2022-08-03T05:56:14.507Z,99.90
2022-08-03T05:58:47.455Z,99.90
2022-08-03T06:01:16.016Z,99.90
2022-08-03T06:03:43.027Z,99.90
2022-08-03T06:06:10.143Z,99.90
2022-08-03T06:08:37.434Z,99.90
2022-08-03T06:11:04.866Z,99.90
2022-08-03T06:13:32.212Z,99.90
2022-08-03T06:15:59.230Z,99.90
2022-08-03T06:18:26.291Z,99.90
2022-08-03T06:20:53.861Z,99.90
2022-08-03T06:23:22.148Z,99.90
2022-08-03T06:25:49.497Z,99.90
2022-08-03T06:28:51.492Z,99.90
2022-08-03T06:31:06.560Z,99.90
2022-08-03T06:34:22.882Z,99.90
2022-08-03T06:36:21.713Z,99.90
2022-08-03T06:38:48.586Z,99.90
2022-08-03T06:41:15.626Z,99.90
2022-08-03T06:44:03.444Z,99.90
2022-08-03T06:46:29.457Z,99.90
2022-08-03T06:48:56.723Z,99.90
2022-08-03T06:52:04.060Z,99.90
2022-08-03T06:54:11.007Z,99.90
2022-08-03T06:56:37.921Z,99.90
2022-08-03T06:59:04.989Z,99.90
2022-08-03T07:01:31.855Z,99.90
2022-08-03T07:03:59.042Z,99.90
2022-08-03T07:06:25.954Z,99.90
2022-08-03T07:08:56.513Z,99.90
2022-08-03T07:11:26.298Z,99.90
2022-08-03T07:13:53.108Z,99.90
2022-08-03T07:16:20.512Z,99.90
2022-08-03T07:18:47.358Z,99.90
2022-08-03T07:21:16.184Z,99.90
2022-08-03T07:23:43.020Z,99.90
2022-08-03T07:26:10.049Z,99.90
2022-08-03T07:28:37.730Z,99.90
2022-08-03T07:31:04.608Z,99.90
2022-08-03T07:33:31.570Z,99.90
2022-08-03T07:35:58.487Z,99.90
2022-08-03T07:38:25.401Z,99.90
2022-08-03T07:40:53.401Z,99.90
2022-08-03T07:43:20.706Z,99.90
2022-08-03T07:45:47.860Z,99.90
2022-08-03T07:48:14.795Z,99.90
2022-08-03T07:50:43.215Z,99.90
2022-08-03T07:53:10.138Z,99.90
2022-08-03T07:55:38.880Z,99.90
2022-08-03T07:58:24.280Z,99.90
2022-08-03T08:00:53.088Z,99.90
2022-08-03T08:03:21.865Z,99.90
2022-08-03T08:05:49.540Z,99.90
2022-08-03T08:08:16.480Z,99.90
2022-08-03T08:10:58.317Z,99.90
2022-08-03T08:13:25.703Z,99.90
2022-08-03T08:15:52.519Z,99.90
2022-08-03T08:18:20.662Z,99.90
2022-08-03T08:20:47.793Z,99.90
2022-08-03T08:23:37.969Z,99.90
2022-08-03T08:26:01.927Z,99.90
2022-08-03T08:28:30.246Z,99.90
2022-08-03T08:31:00.961Z,99.90
2022-08-03T08:33:42.039Z,99.90
2022-08-03T08:36:13.388Z,99.90
2022-08-03T08:38:42.809Z,99.90
2022-08-03T08:41:12.662Z,99.90
2022-08-03T08:43:39.808Z,99.90
2022-08-03T08:46:08.520Z,99.90
2022-08-03T08:48:38.800Z,99.90
2022-08-03T08:51:06.085Z,99.90
2022-08-03T08:53:37.238Z,99.90
2022-08-03T08:56:05.395Z,99.90
2022-08-03T08:58:38.818Z,99.90
2022-08-03T09:01:06.217Z,99.90
2022-08-03T09:03:36.551Z,99.90
2022-08-03T09:06:04.552Z,99.90
2022-08-03T09:08:32.566Z,99.90
2022-08-03T09:11:00.123Z,99.90
2022-08-03T09:13:27.110Z,99.90
2022-08-03T09:16:18.364Z,99.90
2022-08-03T09:18:55.253Z,99.90
2022-08-03T09:21:32.593Z,99.90
2022-08-03T09:24:03.901Z,99.90
2022-08-03T09:26:35.320Z,99.90
2022-08-03T09:29:11.266Z,99.90
2022-08-03T09:31:44.001Z,99.90
2022-08-03T09:34:14.274Z,99.90
2022-08-03T09:36:45.767Z,99.90
2022-08-03T09:39:16.173Z,99.90
2022-08-03T09:41:46.084Z,99.90
2022-08-03T09:44:16.229Z,99.90
2022-08-03T09:46:56.977Z,99.90
2022-08-03T09:49:24.504Z,99.90
2022-08-03T09:52:29.994Z,99.90
2022-08-03T09:54:39.309Z,99.90
2022-08-03T09:57:06.264Z,99.00
2022-08-03T09:59:34.047Z,99.10
2022-08-03T10:02:01.952Z,99.00
2022-08-03T10:04:28.968Z,98.80
2022-08-03T10:07:22.510Z,99.30
2022-08-03T10:09:55.398Z,98.70
2022-08-03T10:12:22.579Z,97.90
2022-08-03T10:14:49.737Z,98.10
2022-08-03T10:17:16.782Z,98.70
2022-08-03T10:19:44.409Z,97.90
2022-08-03T10:22:32.273Z,98.20
2022-08-03T10:25:07.351Z,96.80
2022-08-03T10:27:40.420Z,96.00
2022-08-03T10:30:10.342Z,95.60
2022-08-03T10:32:52.048Z,95.80
2022-08-03T10:35:21.670Z,96.20
2022-08-03T10:38:12.497Z,95.80
2022-08-03T10:40:48.651Z,95.40
2022-08-03T10:43:23.313Z,95.60
2022-08-03T10:45:51.225Z,96.40
2022-08-03T10:48:19.678Z,95.40
2022-08-03T10:50:49.374Z,94.70
2022-08-03T10:53:18.593Z,94.30
2022-08-03T10:56:05.943Z,94.90
2022-08-03T10:58:38.321Z,94.70
2022-08-03T11:02:00.092Z,93.80
2022-08-03T11:04:29.421Z,93.20
2022-08-03T11:07:15.649Z,93.20
2022-08-03T11:09:44.749Z,93.20
2022-08-03T11:12:31.376Z,93.60
2022-08-03T11:15:05.422Z,92.90
2022-08-03T11:17:46.881Z,92.00
2022-08-03T11:20:51.179Z,92.70
2022-08-03T11:24:04.210Z,92.60
2022-08-03T11:26:26.364Z,92.00
2022-08-03T11:28:53.226Z,91.80
2022-08-03T11:31:48.239Z,91.20
2022-08-03T11:34:11.504Z,91.00
2022-08-03T11:37:16.361Z,91.10
2022-08-03T11:39:46.513Z,90.10
2022-08-03T11:42:22.471Z,90.20
2022-08-03T11:44:50.875Z,90.50
2022-08-03T11:47:18.327Z,90.30
2022-08-03T11:49:47.750Z,90.40
2022-08-03T11:52:16.909Z,89.50
2022-08-03T11:54:44.401Z,89.80
2022-08-03T11:57:11.338Z,90.30
2022-08-03T11:59:38.936Z,86.50
2022-08-03T12:02:16.364Z,85.70
2022-08-03T12:05:02.300Z,84.80
2022-08-03T12:08:03.779Z,84.40
2022-08-03T12:10:17.542Z,85.50
2022-08-03T12:12:46.715Z,83.80
2022-08-03T12:15:14.332Z,83.70
2022-08-03T12:17:42.332Z,83.90
2022-08-03T12:20:10.541Z,82.80
2022-08-03T12:22:39.844Z,82.90
2022-08-03T12:25:08.673Z,81.90
2022-08-03T12:27:36.372Z,81.70
2022-08-03T12:30:05.249Z,81.30
2022-08-03T12:32:32.096Z,79.90
2022-08-03T12:35:01.660Z,79.30
2022-08-03T12:37:29.578Z,77.40
2022-08-03T12:40:07.736Z,79.90
2022-08-03T12:42:38.795Z,80.40
2022-08-03T12:45:22.461Z,79.00
2022-08-03T12:47:55.308Z,74.90
2022-08-03T12:50:28.937Z,75.30
2022-08-03T12:52:56.763Z,75.90
2022-08-03T12:55:24.640Z,75.10
2022-08-03T12:57:51.621Z,76.90
2022-08-03T13:00:28.625Z,74.20
2022-08-03T13:03:38.243Z,73.40
2022-08-03T13:05:52.835Z,71.80
2022-08-03T13:08:20.980Z,72.80
2022-08-03T13:10:48.398Z,72.70
2022-08-03T13:13:15.624Z,71.30
2022-08-03T13:15:47.996Z,70.00
2022-08-03T13:18:17.539Z,70.10
2022-08-03T13:20:44.624Z,70.10
2022-08-03T13:23:21.967Z,70.20
2022-08-03T13:25:55.185Z,70.80
2022-08-03T13:28:23.392Z,69.80
2022-08-03T13:30:50.331Z,70.60
2022-08-03T13:33:17.553Z,68.50
2022-08-03T13:35:44.433Z,68.50
2022-08-03T13:38:11.448Z,67.10
2022-08-03T13:40:42.165Z,66.80
2022-08-03T13:43:09.424Z,64.30
2022-08-03T13:45:36.458Z,67.00
2022-08-03T13:48:03.508Z,68.60
2022-08-03T13:50:31.384Z,67.90
2022-08-03T13:52:58.221Z,68.50
2022-08-03T13:55:25.300Z,67.40
2022-08-03T13:58:02.211Z,64.30
2022-08-03T14:00:34.722Z,64.30
2022-08-03T14:03:09.108Z,64.30
2022-08-03T14:05:39.794Z,61.30
2022-08-03T14:08:07.977Z,62.10
2022-08-03T14:10:37.648Z,64.90
2022-08-03T14:13:05.428Z,65.00
2022-08-03T14:15:37.709Z,61.50
2022-08-03T14:18:07.298Z,63.50
2022-08-03T14:20:47.877Z,64.10
2022-08-03T14:23:18.991Z,63.30
2022-08-03T14:25:50.147Z,62.40
2022-08-03T14:28:20.644Z,61.80
2022-08-03T14:30:48.585Z,61.00
2022-08-03T14:33:15.613Z,60.20
2022-08-03T14:35:42.657Z,60.40
2022-08-03T14:38:09.539Z,60.60
2022-08-03T14:40:36.504Z,60.60
2022-08-03T14:43:04.537Z,61.80
2022-08-03T14:45:31.615Z,62.30
2022-08-03T14:50:34.711Z,61.00
2022-08-03T14:50:50.984Z,61.20
2022-08-03T14:53:18.906Z,63.90
2022-08-03T14:55:50.918Z,62.80
2022-08-03T14:58:20.968Z,63.00
2022-08-03T15:00:49.175Z,63.20
2022-08-03T15:03:16.950Z,63.70
2022-08-03T15:05:44.471Z,64.90
2022-08-03T15:08:11.706Z,63.60
2022-08-03T15:10:43.883Z,64.40
2022-08-03T15:13:14.990Z,63.70
2022-08-03T15:15:42.035Z,63.80
2022-08-03T15:18:09.241Z,64.10
2022-08-03T15:20:44.333Z,64.10
2022-08-03T15:23:13.374Z,65.80
2022-08-03T15:26:28.245Z,64.20
2022-08-03T15:28:27.412Z,63.70
2022-08-03T15:30:54.785Z,63.20
2022-08-03T15:33:21.671Z,63.30
2022-08-03T15:35:49.718Z,62.50
2022-08-03T15:38:16.652Z,60.50
2022-08-03T15:40:43.575Z,60.90
2022-08-03T15:43:10.555Z,61.60
2022-08-03T15:45:39.471Z,61.80
2022-08-03T15:48:07.107Z,62.40
2022-08-03T15:50:34.170Z,63.10
2022-08-03T15:53:00.979Z,64.60
2022-08-03T15:55:28.056Z,65.40
2022-08-03T15:59:01.146Z,65.50
2022-08-03T16:00:45.705Z,64.60
2022-08-03T16:03:12.596Z,64.40
2022-08-03T16:05:39.590Z,63.80
2022-08-03T16:08:10.383Z,65.20
2022-08-03T16:10:40.654Z,65.30
2022-08-03T16:13:08.064Z,65.60
2022-08-03T16:15:37.482Z,67.10
2022-08-03T16:18:08.419Z,65.20
2022-08-03T16:20:35.581Z,65.70
2022-08-03T16:23:10.888Z,66.30
2022-08-03T16:25:40.306Z,66.30
2022-08-03T16:28:13.600Z,66.50
2022-08-03T16:30:43.131Z,68.10
2022-08-03T16:33:11.416Z,68.10
2022-08-03T16:35:44.289Z,68.00
2022-08-03T16:38:14.173Z,68.00
2022-08-03T16:40:46.921Z,69.00
2022-08-03T16:43:18.422Z,69.20
2022-08-03T16:45:46.318Z,69.20
2022-08-03T16:48:13.472Z,69.50
2022-08-03T16:50:40.348Z,69.30
2022-08-03T16:53:08.921Z,69.30
2022-08-03T16:55:48.704Z,70.00
2022-08-03T16:58:34.837Z,70.40
2022-08-03T17:01:22.507Z,70.90
2022-08-03T17:04:07.334Z,71.10
2022-08-03T17:06:44.672Z,71.00
2022-08-03T17:09:14.589Z,71.60
2022-08-03T17:11:48.039Z,72.30
2022-08-03T17:14:30.490Z,71.90
2022-08-03T17:17:01.550Z,72.10
2022-08-03T17:19:30.758Z,72.30
2022-08-03T17:22:07.797Z,72.80
2022-08-03T17:24:41.492Z,73.20
2022-08-03T17:27:23.149Z,73.70
2022-08-03T17:30:13.301Z,74.00
2022-08-03T17:32:52.466Z,74.20
2022-08-03T17:35:34.369Z,74.80
2022-08-03T17:38:06.598Z,74.80
2022-08-03T17:40:34.735Z,75.00
2022-08-03T17:44:14.012Z,75.70
2022-08-03T17:45:54.859Z,75.50
2022-08-03T17:48:25.192Z,76.00
2022-08-03T17:50:58.390Z,76.20
2022-08-03T17:53:30.756Z,76.50
2022-08-03T17:56:45.705Z,76.30
2022-08-03T17:59:52.109Z,76.80
2022-08-03T18:03:07.745Z,76.60
2022-08-03T18:06:10.584Z,77.50
2022-08-03T18:08:30.008Z,77.70
2022-08-03T18:11:09.764Z,78.10
2022-08-03T18:14:23.922Z,78.80
2022-08-03T18:17:04.136Z,78.80
2022-08-03T18:20:03.258Z,78.90
2022-08-03T18:22:30.601Z,79.70
2022-08-03T18:25:00.253Z,79.40
2022-08-03T18:27:42.795Z,79.60
2022-08-03T18:30:15.465Z,79.70
2022-08-03T18:32:43.963Z,79.40
2022-08-03T18:35:53.238Z,79.50
2022-08-03T18:38:18.775Z,80.40
2022-08-03T18:40:48.551Z,80.30
2022-08-03T18:43:17.572Z,80.30
2022-08-03T18:45:57.385Z,81.00
2022-08-03T18:48:48.957Z,81.40
2022-08-03T18:51:24.132Z,81.50
2022-08-03T18:54:45.525Z,82.00
2022-08-03T18:57:01.994Z,83.10
2022-08-03T18:59:53.096Z,82.10
2022-08-03T19:02:36.163Z,83.20
2022-08-03T19:05:12.213Z,83.50
2022-08-03T19:07:44.349Z,83.70
2022-08-03T19:10:30.397Z,83.80
2022-08-03T19:13:21.138Z,84.40
2022-08-03T19:16:04.217Z,85.00
2022-08-03T19:18:37.495Z,84.40
2022-08-03T19:21:15.436Z,85.30
2022-08-03T19:23:46.154Z,85.60
2022-08-03T19:26:30.274Z,85.50
2022-08-03T19:28:59.134Z,85.80
2022-08-03T19:31:31.149Z,86.00
2022-08-03T19:34:03.309Z,86.30
2022-08-03T19:36:33.311Z,86.60
2022-08-03T19:39:07.409Z,86.40
2022-08-03T19:41:42.010Z,86.90
2022-08-03T19:44:34.048Z,87.30
2022-08-03T19:47:08.756Z,88.40
2022-08-03T19:50:06.001Z,89.20
2022-08-03T19:52:31.539Z,89.40
2022-08-03T19:55:02.381Z,89.30
2022-08-03T19:57:32.842Z,90.00
2022-08-03T20:00:03.372Z,90.20
2022-08-03T20:02:32.407Z,90.40
2022-08-03T20:05:00.591Z,90.50
2022-08-03T20:07:31.950Z,90.50
2022-08-03T20:10:01.595Z,90.70
2022-08-03T20:12:32.061Z,91.00
2022-08-03T20:15:01.377Z,91.10
2022-08-03T20:17:56.240Z,91.30
2022-08-03T20:20:21.045Z,91.50
2022-08-03T20:22:57.709Z,91.60
2022-08-03T20:25:38.151Z,91.80
2022-08-03T20:28:29.205Z,91.80
2022-08-03T20:30:56.861Z,92.00
2022-08-03T20:33:27.707Z,92.10
2022-08-03T20:36:11.347Z,92.40
2022-08-03T20:38:43.682Z,92.60
2022-08-03T20:41:14.118Z,92.80
2022-08-03T20:43:41.765Z,93.00
2022-08-03T20:46:31.889Z,93.20
2022-08-03T20:48:58.811Z,93.30
2022-08-03T20:51:49.776Z,93.50
2022-08-03T20:54:29.879Z,93.80
2022-08-03T20:56:59.372Z,94.00
2022-08-03T20:59:38.538Z,94.70
2022-08-03T21:02:19.797Z,94.30
2022-08-03T21:05:08.711Z,94.40
2022-08-03T21:08:05.854Z,94.70
2022-08-03T21:10:38.554Z,95.30
2022-08-03T21:13:17.838Z,95.10
2022-08-03T21:16:13.101Z,95.20
2022-08-03T21:18:48.653Z,95.50
2022-08-03T21:21:18.010Z,95.80
2022-08-03T21:23:49.664Z,95.90
2022-08-03T21:26:19.324Z,96.00
2022-08-03T21:28:48.145Z,96.20
2022-08-03T21:31:25.485Z,96.40
2022-08-03T21:33:57.948Z,96.70
2022-08-03T21:36:29.751Z,96.80
2022-08-03T21:38:58.090Z,97.00
2022-08-03T21:41:27.032Z,97.20
2022-08-03T21:43:54.109Z,97.40
2022-08-03T21:46:22.752Z,97.60
2022-08-03T21:48:56.166Z,97.80
2022-08-03T21:51:25.899Z,98.10
2022-08-03T21:54:02.341Z,98.20
2022-08-03T21:56:46.557Z,98.20
2022-08-03T21:59:19.046Z,97.80
2022-08-03T22:01:49.212Z,98.30
2022-08-03T22:04:50.732Z,99.20
2022-08-03T22:07:08.302Z,98.80
2022-08-03T22:09:36.518Z,99.20
2022-08-03T22:12:03.923Z,99.40
2022-08-03T22:14:33.216Z,99.60
2022-08-03T22:17:07.230Z,99.80
2022-08-03T22:19:34.936Z,99.80
2022-08-03T22:22:04.616Z,99.90
2022-08-03T22:24:34.637Z,99.90
2022-08-03T22:27:22.222Z,99.90
2022-08-03T22:29:51.016Z,99.90
2022-08-03T22:32:19.012Z,99.90
2022-08-03T22:34:48.636Z,99.90
2022-08-03T22:37:20.902Z,99.90
2022-08-03T22:39:49.682Z,99.90
2022-08-03T22:42:17.237Z,99.90
2022-08-03T22:44:44.985Z,99.90
2022-08-03T22:47:13.753Z,99.90
2022-08-03T22:49:43.003Z,99.90
2022-08-03T22:52:14.833Z,99.90
2022-08-03T22:54:42.196Z,99.90
2022-08-03T22:57:09.505Z,99.90
2022-08-03T22:59:40.111Z,99.90
2022-08-03T23:02:20.960Z,99.90
2022-08-03T23:04:56.255Z,99.90
2022-08-03T23:07:34.460Z,99.90
2022-08-03T23:10:03.575Z,99.90
2022-08-03T23:12:34.200Z,99.90
2022-08-03T23:15:03.070Z,99.90
2022-08-03T23:17:33.502Z,99.90
2022-08-03T23:20:07.047Z,99.90
2022-08-03T23:22:35.579Z,99.90
2022-08-03T23:25:04.721Z,99.90
2022-08-03T23:27:33.169Z,99.90
2022-08-03T23:30:01.679Z,99.90
2022-08-03T23:32:30.332Z,99.90
2022-08-03T23:35:18.632Z,99.90
2022-08-03T23:38:04.713Z,99.90
2022-08-03T23:40:35.228Z,99.90
2022-08-03T23:43:02.716Z,99.90
2022-08-03T23:45:34.200Z,99.90
2022-08-03T23:48:01.061Z,99.90
2022-08-03T23:50:33.191Z,99.90
2022-08-03T23:53:17.796Z,99.90
2022-08-03T23:55:54.223Z,99.90
2022-08-03T23:58:57.496Z,99.90
